Time;durP1;ratioP1;P1;durP2;ratioP2;P2;SDS_P1;SDS_P2;PMS_P1;PMS_P2;Temp;Humidity;BMP_temperature;BMP_pressure;BME280_temperature;BME280_humidity;BME280_pressure;Samples;Min_cycle;Max_cycle;Signal;HPM_P1;HPM_P2
2024/01/23 00:00:45;;;;;;;4.55;1.83;;;;;;;7.24;100.00;101615.91;5070588;28;20388;-74
2024/01/23 00:03:10;;;;;;;9.55;1.92;;;;;;;7.18;100.00;101613.91;5070428;28;20420;-74
2024/01/23 00:05:36;;;;;;;12.05;1.65;;;;;;;7.12;100.00;101611.84;5068869;28;20127;-74
2024/01/23 00:08:03;;;;;;;17.38;4.00;;;;;;;7.11;100.00;101622.63;5070314;28;20033;-74
2024/01/23 00:10:28;;;;;;;11.18;2.17;;;;;;;7.13;100.00;101621.47;5070254;28;20032;-74
2024/01/23 00:12:54;;;;;;;18.08;2.95;;;;;;;7.15;100.00;101629.28;5070166;28;20395;-74
2024/01/23 00:15:19;;;;;;;9.75;1.95;;;;;;;7.19;100.00;101630.63;5070361;28;20384;-74
2024/01/23 00:17:45;;;;;;;12.10;2.72;;;;;;;7.22;100.00;101639.09;5068905;28;20115;-74
2024/01/23 00:20:11;;;;;;;14.85;2.60;;;;;;;7.21;100.00;101649.91;5070081;28;20497;-74
2024/01/23 00:22:36;;;;;;;10.52;2.78;;;;;;;7.22;100.00;101656.84;5070294;28;20032;-74
2024/01/23 00:25:01;;;;;;;9.50;2.95;;;;;;;7.21;100.00;101658.69;5068815;28;20368;-74
2024/01/23 00:27:27;;;;;;;13.25;1.98;;;;;;;7.16;100.00;101655.66;5069994;28;20040;-73
2024/01/23 00:29:53;;;;;;;14.60;4.18;;;;;;;7.21;100.00;101663.16;5069897;28;20058;-74
2024/01/23 00:32:19;;;;;;;8.48;1.90;;;;;;;7.22;100.00;101662.16;5069881;28;20075;-74
2024/01/23 00:34:44;;;;;;;11.30;3.60;;;;;;;7.23;100.00;101677.06;5069850;28;20110;-74
2024/01/23 00:37:09;;;;;;;18.50;2.47;;;;;;;7.24;100.00;101689.38;5069888;28;20125;-74
2024/01/23 00:39:38;;;;;;;13.35;3.35;;;;;;;7.25;100.00;101688.38;5069799;28;20067;-74
2024/01/23 00:42:10;;;;;;;11.75;2.58;;;;;;;7.24;100.00;101689.38;5069771;28;20035;-74
2024/01/23 00:44:35;;;;;;;15.32;1.85;;;;;;;7.21;100.00;101665.81;5069561;28;20059;-74
2024/01/23 00:47:01;;;;;;;12.80;2.78;;;;;;;7.18;100.00;101674.91;5068428;28;20068;-74
2024/01/23 00:49:26;;;;;;;9.05;2.25;;;;;;;7.18;100.00;101677.56;5051720;28;20028;-74
2024/01/23 00:51:51;;;;;;;8.35;1.83;;;;;;;7.19;100.00;101697.78;5068195;28;20033;-74
2024/01/23 00:54:17;;;;;;;11.73;3.28;;;;;;;7.16;100.00;101694.63;5069661;28;20137;-74
2024/01/23 00:56:42;;;;;;;12.63;2.88;;;;;;;7.14;100.00;101692.09;5069784;28;20044;-74
2024/01/23 00:59:12;;;;;;;15.65;3.38;;;;;;;7.16;100.00;101692.78;5069799;28;20028;-74
2024/01/23 01:01:38;;;;;;;9.00;2.22;;;;;;;7.17;100.00;101709.53;5069629;28;20052;-74
2024/01/23 01:04:04;;;;;;;8.68;3.17;;;;;;;7.14;100.00;101717.81;5069655;28;20066;-74
2024/01/23 01:06:29;;;;;;;7.63;2.50;;;;;;;7.12;100.00;101719.78;5069530;28;20028;-74
2024/01/23 01:08:55;;;;;;;16.98;2.55;;;;;;;7.12;100.00;101741.81;5069508;28;20021;-74
2024/01/23 01:11:20;;;;;;;11.77;2.33;;;;;;;7.19;100.00;101739.41;5069269;28;20398;-73
2024/01/23 01:13:46;;;;;;;9.68;1.88;;;;;;;7.16;100.00;101734.41;5069524;28;20147;-74
2024/01/23 01:16:11;;;;;;;7.43;2.78;;;;;;;7.13;100.00;101740.03;5069515;28;20132;-73
2024/01/23 01:18:39;;;;;;;9.20;2.55;;;;;;;7.01;100.00;101734.09;5069565;28;20127;-73
2024/01/23 01:21:05;;;;;;;11.85;3.38;;;;;;;6.99;100.00;101738.72;5069424;28;20103;-74
2024/01/23 01:23:30;;;;;;;16.83;2.80;;;;;;;6.90;100.00;101750.25;5069345;28;20563;-74
2024/01/23 01:25:56;;;;;;;14.63;3.20;;;;;;;6.89;100.00;101767.13;5068916;28;20028;-74
2024/01/23 01:28:21;;;;;;;10.63;2.65;;;;;;;6.89;100.00;101765.31;5069430;28;20028;-74
2024/01/23 01:30:46;;;;;;;8.73;3.00;;;;;;;6.85;100.00;101773.72;5069254;28;20123;-74
2024/01/23 01:33:12;;;;;;;11.00;1.83;;;;;;;6.77;100.00;101788.56;5069264;28;20423;-74
2024/01/23 01:35:37;;;;;;;13.35;3.35;;;;;;;6.71;100.00;101796.28;5067951;28;20361;-74
2024/01/23 01:38:02;;;;;;;10.02;2.45;;;;;;;6.65;100.00;101791.53;5069311;28;20046;-74
2024/01/23 01:40:28;;;;;;;9.70;2.55;;;;;;;6.66;100.00;101783.47;5069339;28;20065;-73
2024/01/23 01:42:53;;;;;;;3.20;1.55;;;;;;;6.58;100.00;101793.97;5069074;28;20028;-74
2024/01/23 01:45:19;;;;;;;10.70;1.90;;;;;;;6.54;100.00;101779.31;5069118;28;20467;-73
2024/01/23 01:47:46;;;;;;;11.35;3.25;;;;;;;6.56;100.00;101796.75;5068022;28;20060;-74
2024/01/23 01:50:12;;;;;;;8.25;2.45;;;;;;;6.56;100.00;101787.97;5069073;28;20063;-74
2024/01/23 01:52:44;;;;;;;10.57;2.38;;;;;;;6.50;100.00;101776.16;5072454;28;20064;-74
2024/01/23 01:55:09;;;;;;;7.22;2.53;;;;;;;6.50;100.00;101804.47;5072942;28;20082;-74
2024/01/23 01:57:39;;;;;;;11.90;1.95;;;;;;;6.43;100.00;101803.38;5072749;28;20423;-73
2024/01/23 02:00:08;;;;;;;16.13;4.18;;;;;;;6.40;100.00;101804.50;5071365;28;20067;-73
2024/01/23 02:02:36;;;;;;;12.82;2.45;;;;;;;6.38;100.00;101818.88;5072603;28;20553;-74
2024/01/23 02:05:02;;;;;;;12.52;2.55;;;;;;;6.32;100.00;101820.28;5072585;28;20032;-74
2024/01/23 02:07:28;;;;;;;9.35;2.67;;;;;;;6.36;100.00;101832.25;5072657;28;20438;-73
2024/01/23 02:09:53;;;;;;;12.57;3.33;;;;;;;6.28;100.00;101825.03;5071044;28;20517;-74
2024/01/23 02:12:19;;;;;;;5.35;2.83;;;;;;;6.28;100.00;101846.22;5072680;28;20033;-74
2024/01/23 02:14:44;;;;;;;16.95;3.53;;;;;;;6.25;100.00;101848.34;5072583;28;20029;-74
2024/01/23 02:17:09;;;;;;;11.75;3.10;;;;;;;6.26;100.00;101861.44;5072556;28;20024;-73
2024/01/23 02:19:35;;;;;;;19.95;3.33;;;;;;;6.19;100.00;101856.88;5071383;28;20033;-74
2024/01/23 02:22:00;;;;;;;10.82;3.00;;;;;;;6.20;100.00;101858.53;5071100;28;20028;-73
2024/01/23 02:24:25;;;;;;;11.50;2.05;;;;;;;6.19;100.00;101843.63;5072373;28;20025;-74
2024/01/23 02:26:51;;;;;;;8.07;1.95;;;;;;;6.17;100.00;101858.81;5072316;28;20048;-74
2024/01/23 02:29:16;;;;;;;12.65;2.38;;;;;;;6.09;100.00;101860.34;5072515;28;20056;-74
2024/01/23 02:31:42;;;;;;;6.25;1.98;;;;;;;6.14;100.00;101874.00;5072137;28;20036;-73
2024/01/23 02:34:07;;;;;;;12.73;2.60;;;;;;;6.11;100.00;101882.25;5072101;28;20074;-73
2024/01/23 02:36:39;;;;;;;10.18;2.42;;;;;;;6.07;100.00;101888.78;5071943;28;20044;-73
2024/01/23 02:39:05;;;;;;;9.30;1.90;;;;;;;6.04;100.00;101888.25;5071963;28;20081;-73
2024/01/23 02:41:30;;;;;;;9.38;2.17;;;;;;;5.98;100.00;101870.28;5072050;28;20434;-73
2024/01/23 02:43:55;;;;;;;10.35;2.60;;;;;;;6.02;100.00;101893.66;5072121;28;20033;-74
2024/01/23 02:46:20;;;;;;;11.77;1.67;;;;;;;6.00;100.00;101898.28;5072102;28;20033;-73
2024/01/23 02:48:46;;;;;;;6.13;1.63;;;;;;;5.93;100.00;101899.78;5070766;28;20032;-73
2024/01/23 02:51:18;;;;;;;12.95;1.92;;;;;;;5.93;100.00;101918.31;5071841;28;20028;-73
2024/01/23 02:53:43;;;;;;;11.65;2.30;;;;;;;5.90;100.00;101919.44;5071863;28;20111;-74
2024/01/23 02:56:08;;;;;;;10.77;2.42;;;;;;;5.90;100.00;101929.19;5070578;28;20148;-73
2024/01/23 02:58:34;;;;;;;37.45;6.57;;;;;;;5.92;100.00;101921.94;5071764;28;20056;-74
2024/01/23 03:00:59;;;;;;;8.68;2.13;;;;;;;5.85;100.00;101918.19;5070381;28;20029;-73
2024/01/23 03:03:25;;;;;;;10.95;1.77;;;;;;;5.96;100.00;101943.72;5070591;28;20032;-73
2024/01/23 03:05:51;;;;;;;14.35;2.80;;;;;;;5.93;100.00;101956.25;5071603;28;20036;-74
2024/01/23 03:08:16;;;;;;;16.17;5.35;;;;;;;5.80;100.00;101941.59;5071693;28;20040;-74
2024/01/23 03:10:41;;;;;;;15.85;2.47;;;;;;;5.84;100.00;101957.06;5069999;28;20035;-74
2024/01/23 03:13:07;;;;;;;11.10;3.40;;;;;;;5.88;100.00;101962.91;5053638;28;20086;-74
2024/01/23 03:15:32;;;;;;;13.27;2.72;;;;;;;5.84;100.00;101959.72;5070225;28;20493;-73
2024/01/23 03:17:58;;;;;;;20.40;4.32;;;;;;;5.86;100.00;101962.22;5070170;28;20047;-74
2024/01/23 03:20:28;;;;;;;20.85;3.85;;;;;;;5.80;100.00;101962.78;5071258;28;20020;-73
2024/01/23 03:22:53;;;;;;;11.77;3.00;;;;;;;5.84;100.00;101967.66;5054062;28;20051;-73
2024/01/23 03:25:19;;;;;;;15.60;3.60;;;;;;;5.85;100.00;101976.44;5071285;28;20491;-74
2024/01/23 03:27:45;;;;;;;11.18;2.05;;;;;;;5.81;100.00;101967.91;5071733;28;20040;-74
2024/01/23 03:30:26;;;;;;;18.33;2.42;;;;;;;5.82;100.00;101968.78;5069774;28;20532;-74
2024/01/23 03:32:52;;;;;;;8.70;1.85;;;;;;;5.74;100.00;101950.06;5070955;28;20488;-74
2024/01/23 03:35:17;;;;;;;15.07;3.15;;;;;;;5.83;100.00;101962.50;5069339;28;20071;-74
2024/01/23 03:37:42;;;;;;;20.25;2.80;;;;;;;5.85;100.00;101961.38;5070954;28;20491;-74
2024/01/23 03:40:08;;;;;;;12.68;3.08;;;;;;;5.84;100.00;101972.09;5071002;28;20029;-74
2024/01/23 03:42:34;;;;;;;14.82;3.33;;;;;;;5.83;100.00;101987.16;5070837;28;20090;-74
2024/01/23 03:44:59;;;;;;;13.10;2.25;;;;;;;5.84;100.00;102003.88;5070794;28;20032;-73
2024/01/23 03:47:24;;;;;;;11.18;2.97;;;;;;;5.77;100.00;102002.75;5070714;28;20033;-74
2024/01/23 03:49:50;;;;;;;12.32;3.55;;;;;;;5.75;100.00;102008.19;5070792;28;20024;-73
2024/01/23 03:52:16;;;;;;;20.50;3.17;;;;;;;5.73;100.00;102004.81;5070642;28;20068;-74
2024/01/23 03:54:42;;;;;;;13.25;2.88;;;;;;;5.69;100.00;102022.78;5070719;28;20502;-74
2024/01/23 03:57:07;;;;;;;9.68;1.77;;;;;;;5.66;100.00;102032.81;5069251;28;20036;-74
2024/01/23 03:59:32;;;;;;;11.43;2.70;;;;;;;5.62;100.00;102029.59;5070377;28;20043;-74
2024/01/23 04:01:57;;;;;;;11.35;2.67;;;;;;;5.61;100.00;102042.97;5070416;28;20070;-74
2024/01/23 04:04:23;;;;;;;15.15;4.13;;;;;;;5.59;100.00;102043.09;5069056;28;20086;-74
2024/01/23 04:06:48;;;;;;;12.48;3.63;;;;;;;5.56;100.00;102047.84;5069199;28;20036;-73
2024/01/23 04:09:14;;;;;;;13.82;3.50;;;;;;;5.54;100.00;102050.59;5070405;28;20086;-74
2024/01/23 04:11:39;;;;;;;17.50;5.32;;;;;;;5.53;100.00;102046.28;5070181;28;20060;-74
2024/01/23 04:14:04;;;;;;;11.35;2.13;;;;;;;5.51;100.00;102048.22;5068633;28;20032;-74
2024/01/23 04:16:30;;;;;;;16.30;3.22;;;;;;;5.47;100.00;102046.81;5070144;28;20038;-74
2024/01/23 04:18:55;;;;;;;9.27;2.10;;;;;;;5.44;100.00;102057.66;5070095;28;20063;-74
2024/01/23 04:21:21;;;;;;;14.35;4.20;;;;;;;5.39;100.00;102059.88;5068728;28;20043;-74
2024/01/23 04:23:46;;;;;;;20.85;3.70;;;;;;;5.34;100.00;102054.97;5070160;28;20025;-74
2024/01/23 04:26:12;;;;;;;6.18;2.38;;;;;;;5.32;100.00;102067.50;5068749;28;20055;-74
2024/01/23 04:28:37;;;;;;;10.90;2.83;;;;;;;5.32;100.00;102061.34;5069925;28;20051;-74
2024/01/23 04:31:03;;;;;;;10.30;2.03;;;;;;;5.27;100.00;102070.53;5070000;28;20393;-74
2024/01/23 04:33:29;;;;;;;11.63;2.63;;;;;;;5.25;100.00;102076.94;5069802;28;20043;-74
2024/01/23 04:35:54;;;;;;;7.25;2.00;;;;;;;5.21;100.00;102080.81;5068647;28;20048;-74
2024/01/23 04:38:20;;;;;;;12.90;2.97;;;;;;;5.19;100.00;102086.25;5070047;28;20486;-74
2024/01/23 04:40:45;;;;;;;11.98;2.83;;;;;;;5.17;100.00;102098.75;5069869;28;20032;-74
2024/01/23 04:43:10;;;;;;;11.00;3.08;;;;;;;5.15;100.00;102107.78;5069834;28;20085;-74
2024/01/23 04:45:35;;;;;;;13.90;3.08;;;;;;;5.09;100.00;102113.59;5069802;28;20124;-74
2024/01/23 04:48:01;;;;;;;17.95;4.18;;;;;;;5.11;100.00;102128.38;5069859;28;20071;-74
2024/01/23 04:50:26;;;;;;;12.05;2.58;;;;;;;5.08;100.00;102131.25;5069791;28;20060;-74
2024/01/23 04:52:56;;;;;;;9.68;2.47;;;;;;;5.08;100.00;102127.75;5069721;28;20039;-74
2024/01/23 04:55:21;;;;;;;10.07;2.55;;;;;;;5.07;100.00;102132.22;5068476;28;20032;-74
2024/01/23 04:57:46;;;;;;;9.60;1.83;;;;;;;5.10;100.00;102139.91;5069782;28;20033;-74
2024/01/23 05:00:12;;;;;;;13.65;2.45;;;;;;;5.07;100.00;102149.91;5069668;28;20059;-74
2024/01/23 05:02:38;;;;;;;13.75;2.33;;;;;;;5.02;100.00;102150.28;5069300;28;20040;-74
2024/01/23 05:05:04;;;;;;;15.05;3.22;;;;;;;4.99;100.00;102148.72;5069680;28;20024;-74
2024/01/23 05:07:29;;;;;;;17.45;4.95;;;;;;;4.91;100.00;102145.06;5069675;28;20164;-74
2024/01/23 05:09:54;;;;;;;13.23;5.18;;;;;;;4.95;100.00;102165.81;5069435;28;20031;-74
2024/01/23 05:12:20;;;;;;;13.18;3.33;;;;;;;4.90;100.00;102164.50;5068217;28;20059;-74
2024/01/23 05:14:45;;;;;;;11.73;2.17;;;;;;;4.85;100.00;102172.84;5068195;28;20433;-74
2024/01/23 05:17:10;;;;;;;11.50;2.17;;;;;;;4.84;100.00;102182.53;5069464;28;20464;-73
2024/01/23 05:19:36;;;;;;;20.48;6.13;;;;;;;4.83;100.00;102182.69;5069367;28;20032;-73
2024/01/23 05:22:01;;;;;;;16.95;3.20;;;;;;;4.78;100.00;102176.94;5069099;28;20040;-73
2024/01/23 05:24:27;;;;;;;19.10;2.95;;;;;;;4.76;100.00;102187.63;5068943;28;20036;-74
2024/01/23 05:26:52;;;;;;;19.23;4.00;;;;;;;4.75;100.00;102193.88;5071496;28;20032;-73
2024/01/23 05:29:18;;;;;;;11.77;3.33;;;;;;;4.72;100.00;102204.72;5073488;28;20478;-74
2024/01/23 05:31:43;;;;;;;14.18;3.22;;;;;;;4.72;100.00;102196.78;5073234;28;20028;-74
2024/01/23 05:34:09;;;;;;;7.63;2.65;;;;;;;4.63;100.00;102197.53;5073249;28;20357;-74
2024/01/23 05:36:34;;;;;;;12.52;2.47;;;;;;;4.71;100.00;102220.69;5073187;28;20093;-74
2024/01/23 05:38:59;;;;;;;13.43;2.40;;;;;;;4.69;100.00;102226.13;5073056;28;20123;-74
2024/01/23 05:41:25;;;;;;;12.52;2.25;;;;;;;4.65;100.00;102229.13;5073230;28;21012;-74
2024/01/23 05:43:51;;;;;;;9.73;3.55;;;;;;;4.66;100.00;102238.72;5073046;28;20478;-74
2024/01/23 05:46:17;;;;;;;13.10;2.80;;;;;;;4.63;100.00;102242.44;5073035;28;20120;-74
2024/01/23 05:48:43;;;;;;;12.15;2.20;;;;;;;4.64;100.00;102246.78;5071669;28;20035;-74
2024/01/23 05:51:08;;;;;;;15.20;3.05;;;;;;;4.60;100.00;102240.88;5072701;28;20020;-74
2024/01/23 05:53:34;;;;;;;12.38;2.33;;;;;;;4.65;100.00;102263.47;5071652;28;20052;-74
2024/01/23 05:56:00;;;;;;;20.50;3.78;;;;;;;4.60;100.00;102253.25;5071484;28;20040;-74
2024/01/23 05:58:25;;;;;;;9.73;2.33;;;;;;;4.56;100.00;102259.78;5072831;28;20034;-74
2024/01/23 06:00:50;;;;;;;17.92;4.07;;;;;;;4.49;100.00;102255.94;5072738;28;20029;-74
2024/01/23 06:03:16;;;;;;;13.80;3.15;;;;;;;4.41;100.00;102245.97;5054636;28;20033;-74
2024/01/23 06:05:41;;;;;;;14.48;2.22;;;;;;;4.52;100.00;102263.59;5072695;28;20077;-74
2024/01/23 06:08:07;;;;;;;13.20;2.80;;;;;;;4.50;100.00;102269.00;5071314;28;20480;-74
2024/01/23 06:10:32;;;;;;;11.23;2.78;;;;;;;4.52;100.00;102268.88;5071200;28;20472;-74
2024/01/23 06:12:57;;;;;;;12.65;3.47;;;;;;;4.46;100.00;102272.03;5072557;28;20055;-74
2024/01/23 06:15:23;;;;;;;13.30;3.17;;;;;;;4.43;100.00;102265.19;5071201;28;20032;-74
2024/01/23 06:17:49;;;;;;;16.08;1.90;;;;;;;4.28;100.00;102248.75;5054345;28;20044;-74
2024/01/23 06:20:14;;;;;;;13.73;2.63;;;;;;;4.36;100.00;102279.84;5072397;28;20036;-74
2024/01/23 06:22:40;;;;;;;10.13;2.80;;;;;;;4.31;100.00;102276.72;5072416;28;20032;-74
2024/01/23 06:25:15;;;;;;;15.38;2.97;;;;;;;4.28;100.00;102275.16;5072403;28;20032;-74
2024/01/23 06:27:42;;;;;;;14.50;3.38;;;;;;;4.26;100.00;102292.06;5072057;28;20055;-74
2024/01/23 06:30:11;;;;;;;8.23;1.90;;;;;;;4.20;100.00;102293.41;5072217;28;20054;-74
2024/01/23 06:32:37;;;;;;;16.55;4.07;;;;;;;4.24;100.00;102299.25;5072189;28;20094;-74
2024/01/23 06:35:04;;;;;;;13.02;3.53;;;;;;;4.23;100.00;102308.16;5072083;28;20049;-74
2024/01/23 06:37:29;;;;;;;14.68;4.05;;;;;;;4.22;100.00;102309.97;5070500;28;20036;-74
2024/01/23 06:39:55;;;;;;;15.15;2.50;;;;;;;4.14;100.00;102292.06;5070822;28;20158;-74
2024/01/23 06:42:20;;;;;;;15.43;3.40;;;;;;;4.26;100.00;102306.13;5071901;28;20097;-74
2024/01/23 06:44:46;;;;;;;10.63;2.78;;;;;;;4.27;100.00;102313.09;5072034;28;20170;-74
2024/01/23 06:47:11;;;;;;;12.52;2.60;;;;;;;4.25;100.00;102308.88;5072106;28;20086;-74
2024/01/23 06:49:36;;;;;;;14.80;2.90;;;;;;;4.21;100.00;102296.88;5072049;28;20040;-74
2024/01/23 06:52:02;;;;;;;13.30;2.30;;;;;;;4.28;100.00;102313.94;5071850;28;20028;-74
2024/01/23 06:54:28;;;;;;;8.80;3.38;;;;;;;4.27;100.00;102318.38;5071878;28;20039;-74
2024/01/23 06:56:53;;;;;;;12.23;3.90;;;;;;;4.28;100.00;102320.03;5070641;28;20032;-74
2024/01/23 06:59:18;;;;;;;11.02;2.72;;;;;;;4.26;100.00;102335.16;5071695;28;20048;-74
2024/01/23 07:01:44;;;;;;;17.77;3.97;;;;;;;4.27;100.00;102328.06;5070406;28;20021;-74
2024/01/23 07:04:09;;;;;;;14.68;3.05;;;;;;;4.24;100.00;102330.94;5071768;28;20036;-74
2024/01/23 07:06:35;;;;;;;14.30;3.45;;;;;;;4.26;100.00;102344.88;5071501;28;20028;-74
2024/01/23 07:09:00;;;;;;;15.18;3.25;;;;;;;4.23;100.00;102345.13;5071707;28;20043;-74
2024/01/23 07:11:27;;;;;;;10.85;3.20;;;;;;;4.23;100.00;102347.78;5071323;28;20036;-74
2024/01/23 07:13:53;;;;;;;14.18;2.58;;;;;;;4.21;100.00;102349.69;5071498;28;20025;-74
2024/01/23 07:16:19;;;;;;;14.63;5.22;;;;;;;4.21;100.00;102347.03;5070024;28;20585;-74
2024/01/23 07:18:44;;;;;;;16.55;3.97;;;;;;;4.17;100.00;102331.44;5071331;28;20032;-74
2024/01/23 07:21:12;;;;;;;12.85;2.88;;;;;;;4.20;100.00;102332.16;5070007;28;20475;-74
2024/01/23 07:23:38;;;;;;;14.43;3.58;;;;;;;4.23;100.00;102342.50;5071113;28;20032;-74
2024/01/23 07:26:03;;;;;;;20.30;4.47;;;;;;;4.21;100.00;102342.59;5070454;28;20036;-74
2024/01/23 07:28:29;;;;;;;13.15;2.42;;;;;;;4.21;100.00;102345.22;5068708;28;20040;-73
2024/01/23 07:30:54;;;;;;;17.00;4.47;;;;;;;4.21;100.00;102358.44;5070236;28;20127;-73
2024/01/23 07:33:20;;;;;;;13.60;3.33;;;;;;;4.19;100.00;102368.28;5069994;28;20033;-73
2024/01/23 07:35:45;;;;;;;17.52;3.47;;;;;;;4.17;100.00;102368.41;5070269;28;20068;-74
2024/01/23 07:38:11;;;;;;;14.13;3.67;;;;;;;4.06;100.00;102349.91;5071000;28;20411;-73
2024/01/23 07:40:41;;;;;;;19.88;4.15;;;;;;;4.17;100.00;102381.59;5070881;28;20093;-73
2024/01/23 07:43:06;;;;;;;7.97;2.88;;;;;;;4.20;100.00;102385.81;5070793;28;20472;-73
2024/01/23 07:45:32;;;;;;;14.68;3.03;;;;;;;4.15;100.00;102378.25;5070928;28;20040;-73
2024/01/23 07:47:57;;;;;;;18.52;3.22;;;;;;;4.16;100.00;102389.63;5069909;28;20033;-75
2024/01/23 07:50:22;;;;;;;19.27;3.60;;;;;;;4.07;100.00;102377.97;5068406;28;20036;-74
2024/01/23 07:52:48;;;;;;;14.07;3.42;;;;;;;4.13;100.00;102387.22;5070749;28;20032;-73
2024/01/23 07:55:13;;;;;;;16.10;3.33;;;;;;;4.09;100.00;102375.25;5070649;28;20032;-73
2024/01/23 07:57:39;;;;;;;16.90;4.15;;;;;;;4.12;100.00;102385.56;5070538;28;20032;-74
2024/01/23 08:00:05;;;;;;;13.32;3.22;;;;;;;4.12;100.00;102396.97;5070187;28;20494;-74
2024/01/23 08:02:32;;;;;;;16.10;3.88;;;;;;;4.17;100.00;102399.25;5069579;28;20036;-73
2024/01/23 08:04:57;;;;;;;14.52;3.13;;;;;;;4.17;100.00;102401.91;5070452;28;20060;-74
2024/01/23 08:07:22;;;;;;;17.23;3.53;;;;;;;4.22;100.00;102414.72;5070331;28;20070;-73
2024/01/23 08:09:48;;;;;;;9.07;2.90;;;;;;;4.22;100.00;102423.50;5070382;28;20028;-73
2024/01/23 08:12:15;;;;;;;17.00;4.95;;;;;;;4.23;100.00;102422.53;5070048;28;20384;-73
2024/01/23 08:14:41;;;;;;;10.10;2.28;;;;;;;4.22;100.00;102431.44;5070380;28;20134;-74
2024/01/23 08:17:06;;;;;;;13.27;2.60;;;;;;;4.23;100.00;102443.66;5069646;28;20032;-74
2024/01/23 08:19:32;;;;;;;14.50;4.85;;;;;;;4.25;100.00;102443.56;5060731;28;20045;-73
2024/01/23 08:21:58;;;;;;;19.92;4.88;;;;;;;4.26;100.00;102448.72;5069654;28;20067;-75
2024/01/23 08:24:23;;;;;;;13.63;3.13;;;;;;;4.28;100.00;102456.53;5068776;28;20035;-75
2024/01/23 08:26:52;;;;;;;14.55;3.25;;;;;;;4.27;100.00;102460.13;5067291;28;20033;-75
2024/01/23 08:29:19;;;;;;;14.35;3.70;;;;;;;4.30;100.00;102454.63;5069693;28;20119;-78
2024/01/23 08:31:44;;;;;;;13.35;3.70;;;;;;;4.35;100.00;102471.81;5068663;28;20028;-74
2024/01/23 08:34:09;;;;;;;14.90;2.47;;;;;;;4.35;100.00;102473.63;5068856;28;20036;-75
2024/01/23 08:36:35;;;;;;;9.75;2.40;;;;;;;4.40;100.00;102482.00;5069395;28;20106;-77
2024/01/23 08:39:00;;;;;;;16.20;2.85;;;;;;;4.44;100.00;102472.91;5070194;28;20025;-75
2024/01/23 08:41:27;;;;;;;16.80;4.15;;;;;;;4.47;100.00;102477.13;5069984;28;20483;-78
2024/01/23 08:43:52;;;;;;;14.05;3.60;;;;;;;4.51;100.00;102483.84;5067422;28;20060;-75
2024/01/23 08:46:17;;;;;;;14.88;3.65;;;;;;;4.51;100.00;102473.28;5068235;28;20044;-74
2024/01/23 08:48:43;;;;;;;14.90;3.75;;;;;;;4.57;100.00;102491.31;5067909;28;20036;-74
2024/01/23 08:51:10;;;;;;;17.95;7.47;;;;;;;4.60;100.00;102489.25;5068095;28;20036;-74
2024/01/23 08:53:36;;;;;;;16.70;5.25;;;;;;;4.66;100.00;102498.53;5067693;28;20120;-74
2024/01/23 08:56:01;;;;;;;12.48;3.00;;;;;;;4.70;100.00;102497.34;5067543;28;20116;-74
2024/01/23 08:58:27;;;;;;;20.23;4.43;;;;;;;4.76;100.00;102494.22;5067906;28;20085;-74
2024/01/23 09:00:52;;;;;;;14.13;3.90;;;;;;;4.77;100.00;102495.91;5067058;28;20028;-74
2024/01/23 09:03:18;;;;;;;15.02;4.32;;;;;;;4.86;100.00;102497.00;5067979;28;20078;-74
2024/01/23 09:05:43;;;;;;;12.05;3.38;;;;;;;4.95;100.00;102506.00;5067718;28;20103;-75
2024/01/23 09:08:08;;;;;;;16.13;4.65;;;;;;;5.03;100.00;102517.69;5067632;28;20033;-75
2024/01/23 09:10:34;;;;;;;15.82;4.07;;;;;;;5.08;100.00;102508.53;5067673;28;20035;-74
2024/01/23 09:12:59;;;;;;;16.25;3.33;;;;;;;5.11;100.00;102509.16;5067705;28;20032;-74
2024/01/23 09:15:24;;;;;;;10.57;2.97;;;;;;;4.95;100.00;102475.16;5067862;28;20028;-73
2024/01/23 09:17:50;;;;;;;15.43;3.58;;;;;;;5.16;100.00;102482.34;5066451;28;20040;-74
2024/01/23 09:20:17;;;;;;;13.93;2.53;;;;;;;5.28;100.00;102494.59;5067771;28;20071;-74
2024/01/23 09:22:42;;;;;;;15.95;3.38;;;;;;;5.34;100.00;102490.63;5069107;28;20055;-75
2024/01/23 09:25:08;;;;;;;13.82;3.90;;;;;;;5.36;100.00;102486.91;5069578;28;20032;-76
2024/01/23 09:27:33;;;;;;;10.40;2.15;;;;;;;5.41;100.00;102490.03;5069743;28;20036;-73
2024/01/23 09:29:59;;;;;;;14.85;2.60;;;;;;;5.40;100.00;102475.13;5067979;28;20036;-73
2024/01/23 09:32:24;;;;;;;16.63;3.35;;;;;;;5.49;100.00;102479.66;5069243;28;20070;-73
2024/01/23 09:34:50;;;;;;;16.00;3.72;;;;;;;5.53;100.00;102490.00;5069219;28;20029;-73
2024/01/23 09:37:15;;;;;;;16.13;3.65;;;;;;;5.60;100.00;102501.78;5067752;28;20057;-73
2024/01/23 09:39:41;;;;;;;17.77;3.80;;;;;;;5.57;100.00;102484.34;5069220;28;20471;-73
2024/01/23 09:42:09;;;;;;;16.83;3.95;;;;;;;5.72;100.00;102503.44;5069190;28;20016;-73
2024/01/23 09:44:35;;;;;;;18.35;4.60;;;;;;;5.78;100.00;102510.06;5069196;28;20031;-73
2024/01/23 09:47:02;;;;;;;14.57;3.25;;;;;;;5.85;100.00;102509.44;5069355;28;20028;-73
2024/01/23 09:49:29;;;;;;;10.15;3.08;;;;;;;5.88;100.00;102497.75;5069130;28;20064;-72
2024/01/23 09:52:00;;;;;;;17.20;4.28;;;;;;;6.02;100.00;102512.53;5068998;28;20097;-72
2024/01/23 09:54:27;;;;;;;14.57;3.37;;;;;;;6.12;100.00;102513.47;5069156;28;20025;-72
2024/01/23 09:56:53;;;;;;;10.43;2.55;;;;;;;6.16;100.00;102512.25;5068332;28;20387;-72
2024/01/23 09:59:19;;;;;;;16.35;2.63;;;;;;;6.25;100.00;102505.34;5069842;28;20035;-72
2024/01/23 10:01:47;;;;;;;14.15;3.15;;;;;;;6.29;100.00;102507.63;5068946;28;20035;-72
2024/01/23 10:04:15;;;;;;;14.05;3.75;;;;;;;6.31;100.00;102513.63;5067880;28;20040;-72
2024/01/23 10:06:40;;;;;;;27.35;6.50;;;;;;;6.35;100.00;102508.91;5068836;28;20036;-72
2024/01/23 10:09:06;;;;;;;10.95;4.32;;;;;;;6.40;100.00;102516.50;5068970;28;20029;-72
2024/01/23 10:11:35;;;;;;;15.40;4.28;;;;;;;6.45;100.00;102524.91;5068756;28;20033;-72
2024/01/23 10:14:01;;;;;;;9.75;2.70;;;;;;;6.50;100.00;102528.00;5072646;28;20029;-72
2024/01/23 10:16:27;;;;;;;20.65;3.97;;;;;;;6.43;100.00;102525.00;5072602;28;20016;-73
2024/01/23 10:18:53;;;;;;;15.63;3.20;;;;;;;6.51;100.00;102532.31;5072154;28;20025;-72
2024/01/23 10:21:22;;;;;;;15.60;3.03;;;;;;;6.55;100.00;102525.81;5071505;28;20028;-72
2024/01/23 10:23:49;;;;;;;13.02;2.53;;;;;;;6.57;100.00;102537.94;5072489;28;20027;-73
2024/01/23 10:26:15;;;;;;;21.02;3.70;;;;;;;6.62;100.00;102520.81;5072097;28;20435;-73
2024/01/23 10:28:45;;;;;;;10.43;2.90;;;;;;;6.66;100.00;102517.78;5071963;28;20094;-73
2024/01/23 10:31:11;;;;;;;12.88;2.65;;;;;;;6.73;100.00;102526.03;5071842;28;20028;-73
2024/01/23 10:33:37;;;;;;;12.18;2.70;;;;;;;6.77;100.00;102516.88;5070908;28;20028;-73
2024/01/23 10:36:05;;;;;;;12.52;3.75;;;;;;;6.85;100.00;102514.41;5070637;28;20060;-73
2024/01/23 10:38:37;;;;;;;11.25;4.20;;;;;;;6.97;100.00;102523.13;5072151;28;20036;-73
2024/01/23 10:41:07;;;;;;;17.95;3.38;;;;;;;7.03;100.00;102528.75;5072095;28;20044;-72
2024/01/23 10:43:33;;;;;;;12.40;3.63;;;;;;;7.11;100.00;102525.44;5070850;28;20032;-72
2024/01/23 10:46:02;;;;;;;16.42;6.03;;;;;;;7.19;100.00;102519.47;5072201;28;20108;-72
2024/01/23 10:48:30;;;;;;;13.57;1.95;;;;;;;7.20;100.00;102518.47;5072082;28;20177;-73
2024/01/23 10:51:19;;;;;;;14.23;2.97;;;;;;;7.19;100.00;102522.13;5071489;28;20032;-72
2024/01/23 10:53:57;;;;;;;19.90;3.85;;;;;;;7.20;100.00;102522.00;5071461;28;20024;-73
2024/01/23 10:56:23;;;;;;;11.50;3.97;;;;;;;7.17;100.00;102514.28;5071967;28;20410;-73
2024/01/23 10:58:57;;;;;;;14.85;4.47;;;;;;;7.15;100.00;102510.94;5070374;28;20448;-73
2024/01/23 11:01:23;;;;;;;13.73;3.40;;;;;;;7.17;100.00;102516.09;5054215;28;20036;-73
2024/01/23 11:03:48;;;;;;;16.90;4.05;;;;;;;7.18;100.00;102515.13;5070362;28;20043;-73
2024/01/23 11:06:28;;;;;;;10.48;3.97;;;;;;;7.22;100.00;102503.25;5053722;28;20396;-73
2024/01/23 11:09:20;;;;;;;13.48;4.28;;;;;;;7.32;100.00;102490.88;5071681;28;20384;-73
2024/01/23 11:12:03;;;;;;;14.02;2.70;;;;;;;7.48;100.00;102503.63;5070145;28;20033;-73
2024/01/23 11:14:38;;;;;;;11.25;3.17;;;;;;;7.45;100.00;102496.78;5071552;28;20039;-73